createdAt,value
2018-04-10T00:00:40.682Z,7.53
2018-04-10T00:03:09.481Z,10.33
2018-04-10T00:05:38.617Z,6.13
2018-04-10T00:08:07.430Z,12.60
2018-04-10T00:10:36.301Z,7.43
2018-04-10T00:13:06.105Z,8.53
2018-04-10T00:15:34.902Z,7.27
2018-04-10T00:18:03.697Z,7.60
2018-04-10T00:20:32.578Z,8.47
2018-04-10T00:23:01.369Z,9.10
2018-04-10T00:25:30.180Z,10.37
2018-04-10T00:27:58.997Z,6.73
2018-04-10T00:30:27.794Z,10.17
2018-04-10T00:32:56.663Z,8.70
2018-04-10T00:35:25.509Z,10.33
2018-04-10T00:37:54.389Z,10.70
2018-04-10T00:40:23.230Z,8.63
2018-04-10T00:42:52.077Z,8.50
2018-04-10T00:45:20.877Z,9.97
2018-04-10T00:47:49.721Z,8.10
2018-04-10T00:50:18.548Z,7.53
2018-04-10T00:52:47.351Z,7.53
2018-04-10T00:55:16.209Z,10.57
2018-04-10T00:57:45.010Z,8.37
2018-04-10T01:00:13.805Z,7.27
2018-04-10T01:02:43.311Z,7.67
2018-04-10T01:05:12.126Z,7.47
2018-04-10T01:07:44.878Z,9.40
2018-04-10T01:10:13.721Z,7.97
2018-04-10T01:12:42.529Z,6.57
2018-04-10T01:15:11.386Z,7.53
2018-04-10T01:17:40.189Z,10.77
2018-04-10T01:20:08.989Z,6.00
2018-04-10T01:22:37.818Z,8.60
2018-04-10T01:25:06.608Z,8.70
2018-04-10T01:27:35.399Z,10.30
2018-04-10T01:30:05.057Z,7.27
2018-04-10T01:32:33.861Z,7.40
2018-04-10T01:35:02.664Z,9.03
2018-04-10T01:37:31.493Z,11.20
2018-04-10T01:40:00.399Z,10.43
2018-04-10T01:42:29.225Z,7.33
2018-04-10T01:44:58.025Z,6.93
2018-04-10T01:47:26.814Z,6.90
2018-04-10T01:49:55.643Z,5.53
2018-04-10T01:52:24.450Z,6.40
2018-04-10T01:54:53.262Z,9.93
2018-04-10T01:57:22.297Z,7.07
2018-04-10T01:59:51.090Z,9.40
2018-04-10T02:02:19.886Z,8.37
2018-04-10T02:04:49.786Z,10.87
2018-04-10T02:07:18.591Z,7.10
2018-04-10T02:15:13.105Z,6.27
2018-04-10T02:17:41.998Z,6.87
2018-04-10T02:20:10.817Z,9.90
2018-04-10T02:22:45.504Z,7.90
2018-04-10T02:25:14.349Z,6.17
2018-04-10T02:27:48.893Z,7.53
2018-04-10T02:30:18.438Z,10.63
2018-04-10T02:32:47.218Z,8.37
2018-04-10T02:35:16.011Z,9.27
2018-04-10T02:37:44.835Z,6.40
2018-04-10T02:40:13.655Z,9.93
2018-04-10T02:42:42.462Z,9.83
2018-04-10T02:45:11.454Z,7.93
2018-04-10T02:47:40.239Z,9.60
2018-04-10T02:50:09.045Z,7.13
2018-04-10T02:52:38.966Z,7.27
2018-04-10T02:55:07.770Z,7.87
2018-04-10T02:57:36.569Z,7.87
2018-04-10T03:00:05.746Z,10.33
2018-04-10T03:02:34.541Z,9.70
2018-04-10T03:05:03.351Z,8.47
2018-04-10T03:07:33.751Z,9.03
2018-04-10T03:10:02.649Z,8.63
2018-04-10T03:12:31.458Z,9.37
2018-04-10T03:15:00.283Z,9.53
2018-04-10T03:17:30.117Z,8.30
2018-04-10T03:19:58.934Z,11.07
2018-04-10T03:22:27.746Z,8.50
2018-04-10T03:24:58.648Z,8.97
2018-04-10T03:27:27.442Z,9.30
2018-04-10T03:29:56.235Z,8.60
2018-04-10T03:32:25.071Z,9.90
2018-04-10T03:34:53.876Z,11.87
2018-04-10T03:37:22.701Z,10.33
2018-04-10T03:39:51.552Z,10.53
2018-04-10T03:42:20.362Z,10.57
2018-04-10T03:44:49.170Z,7.97
2018-04-10T03:47:17.975Z,9.30
2018-04-10T03:49:46.765Z,9.27
2018-04-10T03:52:15.835Z,7.50
2018-04-10T03:54:44.622Z,10.23
2018-04-10T03:57:13.422Z,10.77
2018-04-10T04:02:16.477Z,12.40
2018-04-10T04:04:46.480Z,14.27
2018-04-10T04:07:15.281Z,12.07
2018-04-10T04:09:45.649Z,8.77
2018-04-10T04:12:14.436Z,9.60
2018-04-10T04:14:43.237Z,13.23
2018-04-10T04:17:17.856Z,15.53
2018-04-10T04:19:52.514Z,11.37
2018-04-10T04:22:27.003Z,15.00
2018-04-10T04:24:56.132Z,15.10
2018-04-10T04:27:24.916Z,12.33
2018-04-10T04:29:53.830Z,13.07
2018-04-10T04:32:22.676Z,9.10
2018-04-10T04:34:51.494Z,14.70
2018-04-10T04:37:20.353Z,11.37
2018-04-10T04:39:49.448Z,15.20
2018-04-10T04:42:18.238Z,13.00
2018-04-10T04:44:47.060Z,11.53
2018-04-10T04:47:15.886Z,12.63
2018-04-10T04:49:44.692Z,14.63
2018-04-10T04:52:13.581Z,14.00
2018-04-10T04:54:42.375Z,14.03
2018-04-10T04:57:11.178Z,11.53
2018-04-10T04:59:40.032Z,10.73
2018-04-10T05:02:08.822Z,13.83
2018-04-10T05:04:37.631Z,14.20
2018-04-10T05:07:07.453Z,16.60
2018-04-10T05:09:36.306Z,13.27
2018-04-10T05:12:05.093Z,9.83
2018-04-10T05:14:34.076Z,14.97
2018-04-10T05:17:02.863Z,12.73
2018-04-10T05:19:31.727Z,13.57
2018-04-10T05:22:00.609Z,16.70
2018-04-10T05:24:29.410Z,17.40
2018-04-10T05:27:00.123Z,19.03
2018-04-10T05:29:28.963Z,14.93
2018-04-10T05:31:57.797Z,16.73
2018-04-10T05:34:26.799Z,16.13
2018-04-10T05:36:55.609Z,15.83
2018-04-10T05:39:24.485Z,16.30
2018-04-10T05:41:53.346Z,16.33
2018-04-10T05:44:22.253Z,16.23
2018-04-10T05:46:51.078Z,15.40
2018-04-10T05:49:19.909Z,16.67
2018-04-10T05:51:48.717Z,12.97
2018-04-10T05:54:17.518Z,15.73
2018-04-10T05:56:46.653Z,11.93
2018-04-10T05:59:15.597Z,12.73
2018-04-10T06:01:44.425Z,10.07
2018-04-10T06:04:13.238Z,11.30
2018-04-10T06:06:42.066Z,13.77
2018-04-10T06:09:12.886Z,10.73
2018-04-10T06:11:41.667Z,11.90
2018-04-10T06:14:10.463Z,11.17
2018-04-10T06:16:39.381Z,8.50
2018-04-10T06:19:08.180Z,10.73
2018-04-10T06:21:36.980Z,9.90
2018-04-10T06:24:05.802Z,11.40
2018-04-10T06:26:34.598Z,11.63
2018-04-10T06:29:04.858Z,7.13
2018-04-10T06:31:33.658Z,10.70
2018-04-10T06:34:02.461Z,8.13
2018-04-10T06:36:31.634Z,9.43
2018-04-10T06:39:00.433Z,7.40
2018-04-10T06:41:29.240Z,10.20
2018-04-10T06:43:58.048Z,8.23
2018-04-10T06:46:26.899Z,8.87
2018-04-10T06:48:55.718Z,8.33
2018-04-10T06:51:24.515Z,9.77
2018-04-10T06:53:53.543Z,9.63
2018-04-10T06:56:22.333Z,14.60
2018-04-10T06:58:51.144Z,8.87
2018-04-10T07:01:20.001Z,10.03
2018-04-10T07:03:48.809Z,12.23
2018-04-10T07:06:17.603Z,12.33
2018-04-10T07:08:47.424Z,9.77
2018-04-10T07:11:16.222Z,10.57
2018-04-10T07:13:45.032Z,8.13
2018-04-10T07:16:13.897Z,9.53
2018-04-10T07:18:42.789Z,8.93
2018-04-10T07:21:11.578Z,8.53
2018-04-10T07:23:40.465Z,8.83
2018-04-10T07:26:09.353Z,6.70
2018-04-10T07:28:38.169Z,6.77
2018-04-10T07:31:07.507Z,6.63
2018-04-10T07:33:36.305Z,7.53
2018-04-10T07:36:05.099Z,8.33
2018-04-10T07:38:33.952Z,8.90
2018-04-10T07:41:02.807Z,7.00
2018-04-10T07:43:31.594Z,10.23
2018-04-10T07:46:01.349Z,8.07
2018-04-10T07:48:30.126Z,6.63
2018-04-10T07:50:58.981Z,7.30
2018-04-10T07:53:27.805Z,4.67
2018-04-10T07:55:56.589Z,10.00
2018-04-10T07:58:25.653Z,8.57
2018-04-10T08:00:54.453Z,8.27
2018-04-10T08:03:23.289Z,7.57
2018-04-10T08:05:52.077Z,7.90
2018-04-10T08:08:22.864Z,7.60
2018-04-10T08:10:51.933Z,7.03
2018-04-10T08:13:20.722Z,6.30
2018-04-10T08:15:49.629Z,6.67
2018-04-10T08:18:18.415Z,5.07
2018-04-10T08:20:47.212Z,5.20
2018-04-10T08:23:16.061Z,6.83
2018-04-10T08:25:44.865Z,5.20
2018-04-10T08:28:13.656Z,5.83
2018-04-10T08:30:43.030Z,4.90
2018-04-10T08:33:11.848Z,5.07
2018-04-10T08:35:40.681Z,4.97
2018-04-10T08:38:09.753Z,5.07
2018-04-10T08:40:38.547Z,9.43
2018-04-10T08:43:07.334Z,7.57
2018-04-10T08:45:36.170Z,5.77
2018-04-10T08:48:04.978Z,6.20
2018-04-10T08:50:33.889Z,5.83
2018-04-10T08:53:02.653Z,5.67
2018-04-10T08:55:31.470Z,3.77
2018-04-10T08:58:00.325Z,5.13
2018-04-10T09:00:29.139Z,6.60
2018-04-10T09:02:57.917Z,6.90
2018-04-10T09:05:27.661Z,5.47
2018-04-10T09:07:56.497Z,4.20
2018-04-10T09:10:25.305Z,8.67
2018-04-10T09:12:55.668Z,4.67
2018-04-10T09:15:24.505Z,5.40
2018-04-10T09:17:53.301Z,4.97
2018-04-10T09:20:22.348Z,5.30
2018-04-10T09:22:51.134Z,5.30
2018-04-10T09:25:19.942Z,5.43
2018-04-10T09:27:48.769Z,4.73
2018-04-10T09:30:17.560Z,4.00
2018-04-10T09:32:46.430Z,5.73
2018-04-10T09:35:15.235Z,5.67
2018-04-10T09:37:44.015Z,2.30
2018-04-10T09:40:12.851Z,3.87
2018-04-10T09:42:41.757Z,7.93
2018-04-10T09:45:10.967Z,6.63
2018-04-10T09:47:39.768Z,7.30
2018-04-10T09:50:08.562Z,3.27
2018-04-10T09:52:37.408Z,4.97
2018-04-10T09:55:06.207Z,2.50
2018-04-10T09:57:35.085Z,2.53
2018-04-10T10:00:03.931Z,3.70
2018-04-10T10:02:32.774Z,2.23
2018-04-10T10:05:01.593Z,1.53
2018-04-10T10:07:34.027Z,2.57
2018-04-10T10:10:02.837Z,4.10
2018-04-10T10:12:31.623Z,2.27
2018-04-10T10:15:00.734Z,2.77
2018-04-10T10:17:29.531Z,2.27
2018-04-10T10:19:58.547Z,2.87
2018-04-10T10:22:27.465Z,4.80
2018-04-10T10:24:56.322Z,3.23
2018-04-10T10:27:25.118Z,2.03
2018-04-10T10:29:53.972Z,3.67
2018-04-10T10:32:22.763Z,2.43
2018-04-10T10:34:51.837Z,2.93
2018-04-10T10:37:20.750Z,3.43
2018-04-10T10:39:49.579Z,3.17
2018-04-10T10:42:18.616Z,1.87
2018-04-10T10:44:47.410Z,4.30
2018-04-10T10:47:16.209Z,3.83
2018-04-10T10:49:45.040Z,4.00
2018-04-10T10:52:13.839Z,2.20
2018-04-10T10:54:42.678Z,3.07
2018-04-10T10:57:11.726Z,3.23
2018-04-10T10:59:40.547Z,2.73
2018-04-10T11:02:09.459Z,1.97
2018-04-10T11:04:38.276Z,1.83
2018-04-10T11:07:08.099Z,2.87
2018-04-10T11:09:36.937Z,3.73
2018-04-10T11:12:05.727Z,2.87
2018-04-10T11:14:34.562Z,1.37
2018-04-10T11:17:03.895Z,3.17
2018-04-10T11:19:32.737Z,2.10
2018-04-10T11:22:01.530Z,2.07
2018-04-10T11:24:30.330Z,2.80
2018-04-10T11:26:59.345Z,2.00
2018-04-10T11:29:28.150Z,3.03
2018-04-10T11:31:56.944Z,2.83
2018-04-10T11:34:25.780Z,2.03
2018-04-10T11:36:54.593Z,3.23
2018-04-10T11:39:23.829Z,1.63
2018-04-10T11:41:52.614Z,2.97
2018-04-10T11:44:22.291Z,2.27
2018-04-10T11:46:51.946Z,3.40
2018-04-10T11:49:20.766Z,5.13
2018-04-10T11:51:49.652Z,3.17
2018-04-10T11:54:18.546Z,2.43
2018-04-10T11:56:47.339Z,1.80
2018-04-10T11:59:16.161Z,2.70
2018-04-10T12:01:44.978Z,1.60
2018-04-10T12:04:13.774Z,2.83
2018-04-10T12:06:42.607Z,2.40
2018-04-10T12:09:12.562Z,2.87
2018-04-10T12:11:41.480Z,4.03
2018-04-10T12:14:10.289Z,3.27
2018-04-10T12:16:39.127Z,4.10
2018-04-10T12:19:08.392Z,1.40
2018-04-10T12:21:37.199Z,1.57
2018-04-10T12:24:05.989Z,2.30
2018-04-10T12:26:36.138Z,3.53
2018-04-10T12:29:04.926Z,3.43
2018-04-10T12:31:33.722Z,1.73
2018-04-10T12:34:02.534Z,2.07
2018-04-10T12:36:31.346Z,2.60
2018-04-10T12:39:00.395Z,1.63
2018-04-10T12:41:29.185Z,6.23
2018-04-10T12:43:57.998Z,9.23
2018-04-10T12:46:26.830Z,4.50
2018-04-10T12:48:55.618Z,8.13
2018-04-10T12:51:24.422Z,6.60
2018-04-10T12:53:53.275Z,3.20
2018-04-10T12:56:22.066Z,3.47
2018-04-10T12:58:50.861Z,4.47
2018-04-10T13:01:20.620Z,6.03
2018-04-10T13:03:49.510Z,3.17
2018-04-10T13:06:18.326Z,3.27
2018-04-10T13:08:47.209Z,4.87
2018-04-10T13:11:16.018Z,2.87
2018-04-10T13:13:44.931Z,2.50
2018-04-10T13:16:13.824Z,3.20
2018-04-10T13:18:42.618Z,3.23
2018-04-10T13:21:12.570Z,3.47
2018-04-10T13:23:41.362Z,5.83
2018-04-10T13:26:10.154Z,3.57
2018-04-10T13:28:38.976Z,3.53
2018-04-10T13:31:07.783Z,3.00
2018-04-10T13:33:36.630Z,3.33
2018-04-10T13:36:05.434Z,5.17
2018-04-10T13:38:34.232Z,5.00
2018-04-10T13:41:03.977Z,3.77
2018-04-10T13:43:32.778Z,4.63
2018-04-10T13:46:01.631Z,3.33
2018-04-10T13:48:30.473Z,4.00
2018-04-10T13:50:59.277Z,3.20
2018-04-10T13:53:28.074Z,5.10
2018-04-10T13:55:57.163Z,6.20
2018-04-10T13:58:26.041Z,3.87
2018-04-10T14:00:54.874Z,5.53
2018-04-10T14:03:23.683Z,4.18
2018-04-10T14:05:52.478Z,2.97
2018-04-10T14:08:22.526Z,3.92
2018-04-10T14:10:51.329Z,12.15
2018-04-10T14:13:20.125Z,3.30
2018-04-10T14:15:48.988Z,3.65
2018-04-10T14:18:17.786Z,3.97
2018-04-10T14:20:46.586Z,4.50
2018-04-10T14:23:15.473Z,14.87
2018-04-10T14:25:44.365Z,4.00
2018-04-10T14:28:13.147Z,2.93
2018-04-10T14:30:42.003Z,2.97
2018-04-10T14:33:10.811Z,3.87
2018-04-10T14:35:39.625Z,2.90
2018-04-10T14:38:08.706Z,3.20
2018-04-10T14:40:37.504Z,4.87
2018-04-10T14:43:06.301Z,4.17
2018-04-10T14:45:36.194Z,5.60
2018-04-10T14:48:05.001Z,2.20
2018-04-10T14:50:33.835Z,2.83
2018-04-10T14:53:02.643Z,2.73
2018-04-10T14:55:31.452Z,2.23
2018-04-10T14:58:00.456Z,4.43
2018-04-10T15:00:29.356Z,2.10
2018-04-10T15:02:58.168Z,4.10
2018-04-10T15:05:27.230Z,1.90
2018-04-10T15:07:56.033Z,2.87
2018-04-10T15:10:24.874Z,4.07
2018-04-10T15:12:53.678Z,2.37
2018-04-10T15:15:22.481Z,3.73
2018-04-10T15:17:51.584Z,3.33
2018-04-10T15:20:20.401Z,1.13
2018-04-10T15:22:49.222Z,3.37
2018-04-10T15:25:18.866Z,3.57
2018-04-10T15:27:47.661Z,1.97
2018-04-10T15:30:16.497Z,2.83
2018-04-10T15:32:45.331Z,3.40
2018-04-10T15:35:14.428Z,2.07
2018-04-10T15:37:43.246Z,3.47
2018-04-10T15:40:12.041Z,1.90
2018-04-10T15:42:40.912Z,3.03
2018-04-10T15:45:09.705Z,4.63
2018-04-10T15:47:38.528Z,5.17
2018-04-10T15:50:07.394Z,5.90
2018-04-10T15:52:36.264Z,4.37
2018-04-10T15:55:05.084Z,3.20
2018-04-10T15:57:34.971Z,4.30
2018-04-10T16:00:04.115Z,2.17
2018-04-10T16:02:32.906Z,3.37
2018-04-10T16:05:01.754Z,4.17
2018-04-10T16:07:30.546Z,1.60
2018-04-10T16:10:00.450Z,2.17
2018-04-10T16:12:29.295Z,1.77
2018-04-10T16:14:58.124Z,2.00
2018-04-10T16:17:26.924Z,2.00
2018-04-10T16:19:56.185Z,4.07
2018-04-10T16:22:24.973Z,1.73
2018-04-10T16:24:53.990Z,2.43
2018-04-10T16:27:23.756Z,2.90
2018-04-10T16:29:52.559Z,1.63
2018-04-10T16:32:22.763Z,3.93
2018-04-10T16:34:51.561Z,2.70
2018-04-10T16:37:20.362Z,9.47
2018-04-10T16:39:49.231Z,1.97
2018-04-10T16:42:18.019Z,2.60
2018-04-10T16:44:46.826Z,2.13
2018-04-10T16:47:16.571Z,1.90
2018-04-10T16:49:45.474Z,1.10
2018-04-10T16:52:14.253Z,2.60
2018-04-10T16:54:43.095Z,3.33
2018-04-10T16:57:11.940Z,1.50
2018-04-10T16:59:40.778Z,1.37
2018-04-10T17:02:12.908Z,1.23
2018-04-10T17:04:41.699Z,2.27
2018-04-10T17:07:11.509Z,1.67
2018-04-10T17:09:40.309Z,1.57
2018-04-10T17:12:09.110Z,1.20
2018-04-10T17:14:37.935Z,1.87
2018-04-10T17:17:06.737Z,1.23
2018-04-10T17:19:35.560Z,1.20
2018-04-10T17:22:04.381Z,3.63
2018-04-10T17:24:33.426Z,2.40
2018-04-10T17:27:02.250Z,0.83
2018-04-10T17:29:32.010Z,2.53
2018-04-10T17:32:00.842Z,1.00
2018-04-10T17:34:29.642Z,1.97
2018-04-10T17:36:58.698Z,1.27
2018-04-10T17:39:27.504Z,1.13
2018-04-10T17:41:56.315Z,0.93
2018-04-10T17:44:25.176Z,3.10
2018-04-10T17:46:53.995Z,3.47
2018-04-10T17:49:22.901Z,2.73
2018-04-10T17:51:51.842Z,2.40
2018-04-10T17:54:20.722Z,1.60
2018-04-10T17:56:49.589Z,2.63
2018-04-10T17:59:18.441Z,1.60
2018-04-10T18:01:47.252Z,1.23
2018-04-10T18:04:16.351Z,3.20
2018-04-10T18:06:45.137Z,1.60
2018-04-10T18:09:16.649Z,2.20
2018-04-10T18:11:45.492Z,2.33
2018-04-10T18:14:14.314Z,2.03
2018-04-10T18:16:43.120Z,1.10
2018-04-10T18:19:11.942Z,1.63
2018-04-10T18:21:40.785Z,2.67
2018-04-10T18:24:09.590Z,1.97
2018-04-10T18:26:38.420Z,5.17
2018-04-10T18:29:08.753Z,2.33
2018-04-10T18:31:37.753Z,2.10
2018-04-10T18:34:06.579Z,2.77
2018-04-10T18:36:35.419Z,5.03
2018-04-10T18:39:05.094Z,3.43
2018-04-10T18:41:33.934Z,2.53
2018-04-10T18:44:02.765Z,1.20
2018-04-10T18:46:32.262Z,2.10
2018-04-10T18:49:01.079Z,3.13
2018-04-10T18:51:30.147Z,5.90
2018-04-10T18:53:58.974Z,4.23
2018-04-10T18:56:27.774Z,3.00
2018-04-10T18:58:56.614Z,4.40
2018-04-10T19:01:25.553Z,3.37
2018-04-10T19:03:54.747Z,1.93
2018-04-10T19:06:23.515Z,1.90
2018-04-10T19:08:52.303Z,2.50
2018-04-10T19:11:21.595Z,2.20
2018-04-10T19:13:50.391Z,3.90
2018-04-10T19:16:20.693Z,2.83
2018-04-10T19:18:49.524Z,4.33
2018-04-10T19:21:18.416Z,4.20
2018-04-10T19:23:48.201Z,2.33
2018-04-10T19:26:17.029Z,3.40
2018-04-10T19:28:45.889Z,4.70
2018-04-10T19:31:14.783Z,5.23
2018-04-10T19:33:43.596Z,3.77
2018-04-10T19:36:12.415Z,3.57
2018-04-10T19:38:41.248Z,2.70
2018-04-10T19:41:10.059Z,2.20
2018-04-10T19:43:38.961Z,2.43
2018-04-10T19:46:07.837Z,2.03
2018-04-10T19:48:36.632Z,3.07
2018-04-10T19:51:05.454Z,4.90
2018-04-10T19:53:34.300Z,3.87
2018-04-10T19:56:03.760Z,2.77
2018-04-10T19:58:32.573Z,3.33
2018-04-10T20:01:03.309Z,1.90
2018-04-10T20:03:32.223Z,2.83
2018-04-10T20:06:01.070Z,1.73
2018-04-10T20:08:31.405Z,1.27
2018-04-10T20:11:00.230Z,1.63
2018-04-10T20:13:29.066Z,1.67
2018-04-10T20:15:57.881Z,5.00
2018-04-10T20:18:26.707Z,1.73
2018-04-10T20:20:56.085Z,2.33
2018-04-10T20:23:24.876Z,2.70
2018-04-10T20:25:53.684Z,3.13
2018-04-10T20:28:23.629Z,2.20
2018-04-10T20:30:52.427Z,3.63
2018-04-10T20:33:21.235Z,2.50
2018-04-10T20:35:50.068Z,3.03
2018-04-10T20:38:18.850Z,4.53
2018-04-10T20:40:47.652Z,3.97
2018-04-10T20:43:16.607Z,4.10
2018-04-10T20:45:45.431Z,3.43
2018-04-10T20:48:14.225Z,2.87
2018-04-10T20:50:43.293Z,3.80
2018-04-10T20:53:12.094Z,3.03
2018-04-10T20:55:40.901Z,3.10
2018-04-10T20:58:09.927Z,1.90
2018-04-10T21:00:38.744Z,2.63
2018-04-10T21:03:07.534Z,3.70
2018-04-10T21:05:37.247Z,1.47
2018-04-10T21:08:06.054Z,2.30
2018-04-10T21:10:34.851Z,1.13
2018-04-10T21:13:03.679Z,1.67
2018-04-10T21:15:32.495Z,2.63
2018-04-10T21:18:02.429Z,3.83
2018-04-10T21:20:31.203Z,2.10
2018-04-10T21:22:59.997Z,3.73
2018-04-10T21:25:29.098Z,2.60
2018-04-10T21:27:57.905Z,2.50
2018-04-10T21:30:26.740Z,2.80
2018-04-10T21:32:55.549Z,2.53
2018-04-10T21:35:24.341Z,3.57
2018-04-10T21:37:53.140Z,3.97
2018-04-10T21:40:22.733Z,1.40
2018-04-10T21:43:06.462Z,4.13
2018-04-10T21:45:35.288Z,4.47
2018-04-10T21:48:07.098Z,1.60
2018-04-10T21:50:35.938Z,3.20
2018-04-10T21:53:04.726Z,2.00
2018-04-10T21:55:33.521Z,2.13
2018-04-10T21:58:03.643Z,1.73
2018-04-10T22:00:32.426Z,2.90
2018-04-10T22:03:01.247Z,2.37
2018-04-10T22:05:30.183Z,1.57
2018-04-10T22:08:00.718Z,1.70
2018-04-10T22:10:29.498Z,1.53
2018-04-10T22:12:58.391Z,2.10
2018-04-10T22:15:27.248Z,1.70
2018-04-10T22:17:56.053Z,3.27
2018-04-10T22:20:24.848Z,2.27
2018-04-10T22:22:53.646Z,2.43
2018-04-10T22:25:22.742Z,1.60
2018-04-10T22:27:51.538Z,3.47
2018-04-10T22:30:20.333Z,4.30
2018-04-10T22:32:49.390Z,2.93
2018-04-10T22:35:18.181Z,3.00
2018-04-10T22:37:46.983Z,4.27
2018-04-10T22:40:15.810Z,4.43
2018-04-10T22:42:44.637Z,2.27
2018-04-10T22:45:13.698Z,3.40
2018-04-10T22:47:42.494Z,1.57
2018-04-10T22:50:11.293Z,1.23
2018-04-10T22:52:40.136Z,2.00
2018-04-10T22:55:08.923Z,2.27
2018-04-10T22:57:37.726Z,2.40
2018-04-10T23:00:06.563Z,1.10
2018-04-10T23:02:35.382Z,1.40
2018-04-10T23:05:04.190Z,1.57
2018-04-10T23:07:33.043Z,1.40
2018-04-10T23:10:02.138Z,1.53
2018-04-10T23:12:30.935Z,2.80
2018-04-10T23:14:59.771Z,3.40
2018-04-10T23:17:28.567Z,2.57
2018-04-10T23:19:57.407Z,2.63
2018-04-10T23:22:26.217Z,1.97
2018-04-10T23:24:55.016Z,2.70
2018-04-10T23:27:24.110Z,3.27
2018-04-10T23:29:52.914Z,1.80
2018-04-10T23:32:21.715Z,3.97
2018-04-10T23:34:50.551Z,3.33
2018-04-10T23:37:19.340Z,2.50
2018-04-10T23:39:48.182Z,2.10
2018-04-10T23:42:17.053Z,2.70
2018-04-10T23:44:45.851Z,2.90
2018-04-10T23:47:14.933Z,3.40
2018-04-10T23:49:43.724Z,4.50
2018-04-10T23:52:12.530Z,2.07
2018-04-10T23:54:41.364Z,3.37
2018-04-10T23:57:10.158Z,2.77
2018-04-10T23:59:38.947Z,3.57
